Fairburn, Georgia
Current Conditions -  °F | °C
As of 4:52 AM on Friday 31 Oct 2014 (Local Time) from KATL Reporting Station
Scattered Clouds Scattered Clouds  
Wind Chill: 44°   Ceiling: Unl
Heat Index: 44°   Visibility: 10mi
Dew Point: 39°   Wind: 3mph
Humidity: 82%   Direction: 310°NW
Pressure: 29.93"   Gusts: NA
Location:  33.57°N, 84.58°W
Report Text: KATL 310852Z 31003KT 10SM FEW200 SCT250 07/04 A2993 RMK AO2 SLP134 T00670039 58012
Loading
Personal Weather Stations






























Interactive Weather Map
Tropical Storm Tracking
New forecast layout! Learn more

10-Day Weather Forecast

Advertisements
Track Severe Weather on mobile